Time;durP1;ratioP1;P1;durP2;ratioP2;P2;SDS_P1;SDS_P2;PMS_P1;PMS_P2;Temp;Humidity;BMP_temperature;BMP_pressure;BME280_temperature;BME280_humidity;BME280_pressure;Samples;Min_cycle;Max_cycle;Signal;HPM_P1;HPM_P2
2022/05/13 00:00:03;;;;;;;;;;;;;;;27.37;29.80;100980.78;5075504;28;852;-41
2022/05/13 00:02:28;;;;;;;;;;;;;;;27.34;29.67;100974.88;5058584;28;804;-39
2022/05/13 00:04:53;;;;;;;;;;;;;;;27.33;30.02;100970.47;5075907;28;888;-42
2022/05/13 00:07:19;;;;;;;;;;;;;;;27.31;29.70;100962.56;5076699;28;883;-41
2022/05/13 00:10:05;;;;;;;;;;;;;;;27.35;29.78;100960.34;5076618;28;806;-42
2022/05/13 00:12:42;;;;;;;;;;;;;;;27.31;30.13;100961.75;5075747;28;837;-40
2022/05/13 00:15:09;;;;;;;;;;;;;;;27.32;29.94;100964.25;5076185;28;974;-42
2022/05/13 00:17:34;;;;;;;;;;;;;;;27.31;29.95;100962.56;5079606;28;1957;-41
2022/05/13 00:20:00;;;;;;;;;;;;;;;27.32;29.71;100964.25;5080100;28;828;-41
2022/05/13 00:22:25;;;;;;;;;;;;;;;27.29;29.90;100955.66;5079816;28;924;-41
2022/05/13 00:24:54;;;;;;;;;;;;;;;27.26;30.23;100957.69;5079509;28;900;-41
2022/05/13 00:27:19;;;;;;;;;;;;;;;27.29;29.86;100961.91;5079579;28;1057;-41
2022/05/13 00:29:45;;;;;;;;;;;;;;;27.25;29.84;100965.97;5078651;28;862;-41
2022/05/13 00:32:10;;;;;;;;;;;;;;;27.29;29.86;100963.78;5079784;28;964;-42
2022/05/13 00:34:35;;;;;;;;;;;;;;;27.32;29.76;100960.72;5080194;28;825;-41
2022/05/13 00:37:01;;;;;;;;;;;;;;;27.26;30.21;100968.50;5079304;28;1902;-41
2022/05/13 00:39:26;;;;;;;;;;;;;;;27.30;30.10;100965.44;5079230;28;891;-41
2022/05/13 00:41:53;;;;;;;;;;;;;;;27.31;30.18;100964.44;5079940;28;765;-41
2022/05/13 00:44:18;;;;;;;;;;;;;;;27.30;30.00;100965.44;5079577;28;888;-40
2022/05/13 00:46:44;;;;;;;;;;;;;;;27.28;29.78;100967.50;5079229;28;1050;-44
2022/05/13 00:49:10;;;;;;;;;;;;;;;27.24;30.17;100967.84;5079843;28;804;-42
2022/05/13 00:51:36;;;;;;;;;;;;;;;27.22;29.93;100971.75;5060467;28;1159;-42
2022/05/13 00:54:01;;;;;;;;;;;;;;;27.25;30.13;100965.97;5079072;28;738;-42
2022/05/13 00:56:27;;;;;;;;;;;;;;;27.26;29.88;100970.34;5060965;28;997;-42
2022/05/13 00:58:56;;;;;;;;;;;;;;;27.24;30.28;100964.31;5079131;28;1898;-39
2022/05/13 01:01:21;;;;;;;;;;;;;;;27.24;30.08;100957.03;5079294;28;1049;-42
2022/05/13 01:03:48;;;;;;;;;;;;;;;27.21;30.29;100961.97;5078867;28;912;-42
2022/05/13 01:06:15;;;;;;;;;;;;;;;27.23;30.06;100958.06;5061275;28;1005;-43
2022/05/13 01:08:40;;;;;;;;;;;;;;;27.24;30.27;100957.03;5061637;28;860;-42
2022/05/13 01:11:06;;;;;;;;;;;;;;;27.22;29.86;100961.78;5060936;28;845;-41
2022/05/13 01:13:31;;;;;;;;;;;;;;;27.22;30.06;100958.25;5060806;28;874;-41
2022/05/13 01:15:57;;;;;;;;;;;;;;;27.22;30.11;100951.00;5078607;28;970;-41
2022/05/13 01:18:26;;;;;;;;;;;;;;;27.23;30.21;100946.41;5079449;28;1972;-43
2022/05/13 01:20:52;;;;;;;;;;;;;;;27.21;30.29;100941.19;5078559;28;871;-41
2022/05/13 01:23:27;;;;;;;;;;;;;;;27.18;30.25;100946.09;5079202;28;901;-40
2022/05/13 01:25:56;;;;;;;;;;;;;;;27.18;30.13;100946.09;5078840;28;1306;-42
2022/05/13 01:28:23;;;;;;;;;;;;;;;27.21;29.81;100946.59;5077526;28;860;-41
2022/05/13 01:30:49;;;;;;;;;;;;;;;27.19;30.10;100945.94;5078620;28;1046;-41
2022/05/13 01:33:15;;;;;;;;;;;;;;;27.23;30.05;100941.84;5079310;28;916;-42
2022/05/13 01:35:41;;;;;;;;;;;;;;;27.24;30.14;100943.53;5078427;28;948;-40
2022/05/13 01:38:06;;;;;;;;;;;;;;;27.17;30.20;100939.03;5078427;28;1969;-42
2022/05/13 01:40:31;;;;;;;;;;;;;;;27.17;30.29;100934.47;5078651;28;917;-43
2022/05/13 01:42:57;;;;;;;;;;;;;;;27.19;30.02;100934.31;5078022;28;905;-42
2022/05/13 01:45:22;;;;;;;;;;;;;;;27.13;30.03;100934.00;5078237;28;1034;-43
2022/05/13 01:47:48;;;;;;;;;;;;;;;27.18;29.93;100938.00;5078746;28;835;-42
2022/05/13 01:50:13;;;;;;;;;;;;;;;27.28;30.08;100938.63;5077917;28;942;-40
2022/05/13 01:52:38;;;;;;;;;;;;;;;27.22;29.93;100931.25;5078873;28;801;-42
2022/05/13 01:55:04;;;;;;;;;;;;;;;27.19;30.28;100932.44;5078069;28;861;-41
2022/05/13 01:57:29;;;;;;;;;;;;;;;27.17;29.94;100941.72;5077758;28;1955;-41
2022/05/13 01:59:55;;;;;;;;;;;;;;;27.14;30.00;100932.13;5078229;28;990;-42
2022/05/13 02:02:20;;;;;;;;;;;;;;;27.14;30.38;100932.13;5078478;28;765;-41
2022/05/13 02:04:45;;;;;;;;;;;;;;;27.16;30.49;100934.66;5078051;28;813;-41
2022/05/13 02:07:11;;;;;;;;;;;;;;;27.18;30.40;100938.00;5077964;28;881;-41
2022/05/13 02:09:36;;;;;;;;;;;;;;;27.13;30.35;100941.25;5077734;28;785;-41
2022/05/13 02:12:01;;;;;;;;;;;;;;;27.09;30.47;100937.22;5077979;28;758;-40
2022/05/13 02:14:27;;;;;;;;;;;;;;;27.12;30.33;100940.41;5078316;28;821;-42
2022/05/13 02:16:52;;;;;;;;;;;;;;;27.12;30.57;100940.41;5077762;28;979;-41
2022/05/13 02:19:17;;;;;;;;;;;;;;;27.19;30.23;100929.75;5077184;28;1968;-42
2022/05/13 02:21:43;;;;;;;;;;;;;;;27.18;30.41;100938.00;5077258;28;751;-42
2022/05/13 02:24:08;;;;;;;;;;;;;;;27.16;30.65;100940.88;5078060;28;845;-42
2022/05/13 02:26:33;;;;;;;;;;;;;;;27.19;30.49;100937.84;5077408;28;1036;-41
2022/05/13 02:29:02;;;;;;;;;;;;;;;27.17;30.29;100937.19;5077555;28;838;-41
2022/05/13 02:31:28;;;;;;;;;;;;;;;27.19;30.49;100931.59;5077365;28;983;-41
2022/05/13 02:33:54;;;;;;;;;;;;;;;27.21;30.33;100927.69;5077266;28;849;-41
2022/05/13 02:36:19;;;;;;;;;;;;;;;27.16;30.32;100919.28;5077455;28;876;-40
2022/05/13 02:38:44;;;;;;;;;;;;;;;27.18;30.40;100932.59;5077207;28;1906;-41
2022/05/13 02:41:13;;;;;;;;;;;;;;;27.16;30.13;100931.97;5077304;28;924;-41
2022/05/13 02:43:41;;;;;;;;;;;;;;;27.12;30.25;100932.31;5077296;28;830;-41
2022/05/13 02:46:06;;;;;;;;;;;;;;;27.12;30.66;100940.41;5076955;28;904;-41
2022/05/13 02:48:32;;;;;;;;;;;;;;;27.24;30.20;100938.13;5077386;28;806;-42
2022/05/13 02:50:57;;;;;;;;;;;;;;;27.25;30.25;100933.56;5076751;28;825;-41
2022/05/13 02:53:22;;;;;;;;;;;;;;;27.28;30.15;100938.63;5077117;28;804;-41
2022/05/13 02:55:48;;;;;;;;;;;;;;;27.24;29.88;100929.19;5077308;28;750;-41
2022/05/13 02:58:13;;;;;;;;;;;;;;;27.22;30.01;100937.50;5076790;28;1968;-42
2022/05/13 03:00:39;;;;;;;;;;;;;;;27.22;30.01;100944.75;5076806;28;1050;-40
2022/05/13 03:03:05;;;;;;;;;;;;;;;27.29;29.88;100937.63;5077007;28;804;-41
2022/05/13 03:05:31;;;;;;;;;;;;;;;27.28;30.19;100945.91;5058748;28;940;-42
2022/05/13 03:08:00;;;;;;;;;;;;;;;27.22;29.99;100948.28;5076618;28;924;-41
2022/05/13 03:10:26;;;;;;;;;;;;;;;27.20;30.04;100949.47;5076461;28;860;-41
2022/05/13 03:12:51;;;;;;;;;;;;;;;27.19;30.34;100953.19;5076722;28;774;-40
2022/05/13 03:15:16;;;;;;;;;;;;;;;27.18;30.16;100959.59;5058766;28;1148;-41
2022/05/13 03:17:41;;;;;;;;;;;;;;;27.13;30.26;100955.59;5076139;28;1963;-39
2022/05/13 03:20:08;;;;;;;;;;;;;;;27.08;30.96;100966.09;5058010;28;860;-41
2022/05/13 03:22:33;;;;;;;;;;;;;;;27.61;29.56;100961.84;5058717;28;837;-39
2022/05/13 03:24:59;;;;;;;;;;;;;;;27.37;29.63;100972.66;5076628;28;824;-40
2022/05/13 03:27:25;;;;;;;;;;;;;;;27.45;30.15;100966.34;5075570;28;1360;-39
2022/05/13 03:29:50;;;;;;;;;;;;;;;27.38;30.57;100968.09;5076267;28;1376;-40
2022/05/13 03:32:15;;;;;;;;;;;;;;;27.35;30.66;100963.03;5075848;28;1266;-38
2022/05/13 03:34:41;;;;;;;;;;;;;;;27.38;30.52;100970.78;5076354;28;791;-40
2022/05/13 03:37:06;;;;;;;;;;;;;;;27.35;30.36;100963.91;5076486;28;1906;-37
2022/05/13 03:39:31;;;;;;;;;;;;;;;27.67;29.92;100969.22;5076367;28;818;-40
2022/05/13 03:41:57;;;;;;;;;;;;;;;28.35;28.85;100970.34;5076113;28;872;-39
2022/05/13 03:44:22;;;;;;;;;;;;;;;28.44;27.32;100973.78;5076773;28;837;-33
2022/05/13 03:46:47;;;;;;;;;;;;;;;28.32;27.66;100974.22;5076394;28;971;-34
2022/05/13 03:49:13;;;;;;;;;;;;;;;28.44;27.17;100980.06;5076214;28;877;-36
2022/05/13 03:51:38;;;;;;;;;;;;;;;28.66;26.87;100987.41;5056940;28;1117;-31
2022/05/13 03:54:03;;;;;;;;;;;;;;;29.01;26.76;100979.53;5076330;28;873;-38
2022/05/13 03:56:29;;;;;;;;;;;;;;;29.57;26.03;100982.63;5076163;28;917;-41
2022/05/13 03:58:54;;;;;;;;;;;;;;;29.81;25.58;100983.28;5076462;28;1898;-42
2022/05/13 04:01:19;;;;;;;;;;;;;;;28.80;26.22;100988.41;5075792;28;1030;-40
2022/05/13 04:03:47;;;;;;;;;;;;;;;28.35;27.24;100986.56;5076116;28;818;-39
2022/05/13 04:08:56;;;;;;;;;;;;;;;27.60;28.24;100992.59;5075996;28;592;-39
2022/05/13 04:11:22;;;;;;;;;;;;;;;28.94;26.45;101000.25;5076036;28;702;-38
2022/05/13 04:16:31;;;;;;;;;;;;;;;28.10;27.52;100997.59;5069994;28;860;-43
2022/05/13 04:18:58;;;;;;;;;;;;;;;28.01;26.79;100999.53;5076122;28;1961;-42
2022/05/13 04:21:28;;;;;;;;;;;;;;;28.08;27.02;101007.75;5075935;28;864;-40
2022/05/13 04:23:54;;;;;;;;;;;;;;;27.99;27.16;101012.41;5075697;28;830;-37
2022/05/13 04:26:20;;;;;;;;;;;;;;;27.67;27.68;101012.47;5075549;28;1169;-40
2022/05/13 04:28:46;;;;;;;;;;;;;;;26.72;29.08;101005.19;5076139;28;848;-41
2022/05/13 04:31:12;;;;;;;;;;;;;;;25.64;30.28;101005.31;5075878;28;1041;-39
2022/05/13 04:33:37;;;;;;;;;;;;;;;25.37;31.54;101000.00;5075796;28;817;-41
2022/05/13 04:36:03;;;;;;;;;;;;;;;25.41;31.58;101006.75;5075938;28;818;-39
2022/05/13 04:38:28;;;;;;;;;;;;;;;25.90;31.01;101005.16;5075957;28;2078;-41
2022/05/13 04:40:54;;;;;;;;;;;;;;;25.96;30.99;100994.69;5075547;28;904;-43
2022/05/13 04:43:19;;;;;;;;;;;;;;;26.07;30.23;100982.72;5075882;28;845;-43
2022/05/13 04:45:44;;;;;;;;;;;;;;;26.02;30.64;101008.34;5075928;28;990;-43
2022/05/13 04:48:21;;;;;;;;;;;;;;;25.82;31.21;101004.28;5075505;28;952;-43
2022/05/13 04:50:53;;;;;;;;;;;;;;;25.77;31.02;101004.81;5075649;28;908;-43
2022/05/13 04:53:19;;;;;;;;;;;;;;;25.61;31.27;101013.69;5075305;28;900;-42
2022/05/13 04:55:45;;;;;;;;;;;;;;;25.44;31.62;101025.25;5056831;28;778;-44
2022/05/13 04:58:10;;;;;;;;;;;;;;;25.25;32.11;101023.69;5075619;28;1901;-42
2022/05/13 05:00:35;;;;;;;;;;;;;;;25.23;32.18;101020.31;5075715;28;1163;-43
2022/05/13 05:03:01;;;;;;;;;;;;;;;25.38;32.01;101025.06;5076151;28;836;-43
2022/05/13 05:05:27;;;;;;;;;;;;;;;25.54;31.71;101029.66;5078562;28;856;-44
2022/05/13 05:07:52;;;;;;;;;;;;;;;25.88;31.34;101025.16;5079132;28;814;-42
2022/05/13 05:10:21;;;;;;;;;;;;;;;25.94;30.90;101037.16;5079030;28;809;-42
2022/05/13 05:12:47;;;;;;;;;;;;;;;25.92;31.37;101040.00;5079075;28;785;-43
2022/05/13 05:15:13;;;;;;;;;;;;;;;25.98;30.98;101042.03;5078751;28;970;-43
2022/05/13 05:17:39;;;;;;;;;;;;;;;26.15;30.29;101039.31;5078374;28;1902;-43
2022/05/13 05:20:05;;;;;;;;;;;;;;;26.23;30.46;101033.06;5078968;28;792;-43
2022/05/13 05:22:30;;;;;;;;;;;;;;;26.16;30.15;101041.00;5079088;28;853;-44
2022/05/13 05:24:55;;;;;;;;;;;;;;;26.25;30.24;101048.09;5078561;28;854;-43
2022/05/13 05:27:21;;;;;;;;;;;;;;;26.16;30.50;101046.41;5078371;28;1234;-44
2022/05/13 05:29:46;;;;;;;;;;;;;;;26.02;30.49;101047.94;5078990;28;813;-43
2022/05/13 05:32:12;;;;;;;;;;;;;;;26.13;30.63;101061.06;5078171;28;1010;-42
2022/05/13 05:34:37;;;;;;;;;;;;;;;26.03;30.88;101055.00;5078481;28;807;-43
2022/05/13 05:37:02;;;;;;;;;;;;;;;26.42;30.88;101056.19;5078944;28;893;-44
2022/05/13 05:39:28;;;;;;;;;;;;;;;26.71;30.29;101057.47;5078407;28;1905;-43
2022/05/13 05:41:53;;;;;;;;;;;;;;;26.81;29.61;101059.16;5078274;28;813;-44
2022/05/13 05:44:18;;;;;;;;;;;;;;;26.80;29.90;101055.59;5078613;28;896;-43
2022/05/13 05:46:44;;;;;;;;;;;;;;;26.79;29.77;101059.31;5078117;28;983;-43
2022/05/13 05:49:10;;;;;;;;;;;;;;;26.68;30.05;101052.41;5078250;28;813;-43
2022/05/13 05:51:35;;;;;;;;;;;;;;;26.92;29.80;101049.81;5078569;28;845;-43
2022/05/13 05:59:28;;;;;;;;;;;;;;;26.78;29.38;101053.06;5078721;28;1894;-44
2022/05/13 06:01:53;;;;;;;;;;;;;;;26.90;30.05;101047.28;5077748;28;1487;-44
2022/05/13 06:04:18;;;;;;;;;;;;;;;27.25;31.24;101055.97;5078122;28;933;-44
2022/05/13 06:06:44;;;;;;;;;;;;;;;27.10;29.45;101053.16;5078026;28;830;-43
2022/05/13 06:09:09;;;;;;;;;;;;;;;27.04;29.38;101053.88;5077085;28;900;-43
2022/05/13 06:11:35;;;;;;;;;;;;;;;27.06;29.68;101049.13;5078204;28;993;-43
2022/05/13 06:14:00;;;;;;;;;;;;;;;27.20;29.28;101039.44;5077688;28;773;-45
2022/05/13 06:16:26;;;;;;;;;;;;;;;27.15;29.16;101041.81;5058765;28;1070;-44
2022/05/13 06:18:51;;;;;;;;;;;;;;;27.19;29.40;101035.06;5078019;28;1893;-43
2022/05/13 06:21:17;;;;;;;;;;;;;;;27.18;29.01;101048.72;5077313;28;1430;-43
2022/05/13 06:23:42;;;;;;;;;;;;;;;27.22;29.14;101040.13;5076859;28;1089;-43
2022/05/13 06:26:07;;;;;;;;;;;;;;;27.27;29.31;101042.28;5077281;28;1079;-44
2022/05/13 06:28:33;;;;;;;;;;;;;;;27.24;29.26;101042.63;5077467;28;822;-44
2022/05/13 06:30:59;;;;;;;;;;;;;;;27.26;29.40;101035.16;5077504;28;1038;-44
2022/05/13 06:33:25;;;;;;;;;;;;;;;27.26;29.66;101036.03;5077525;28;753;-43
2022/05/13 06:35:50;;;;;;;;;;;;;;;27.33;29.28;101041.56;5077031;28;884;-42
2022/05/13 06:38:20;;;;;;;;;;;;;;;27.41;29.49;101039.84;5077660;28;1963;-45
2022/05/13 06:40:46;;;;;;;;;;;;;;;27.48;29.66;101035.38;5077884;28;858;-45
2022/05/13 06:43:11;;;;;;;;;;;;;;;27.51;29.12;101037.72;5077488;28;807;-44
2022/05/13 06:45:36;;;;;;;;;;;;;;;27.49;29.15;101043.31;5077287;28;986;-44
2022/05/13 06:48:03;;;;;;;;;;;;;;;27.47;28.84;101045.38;5076838;28;888;-44
2022/05/13 06:50:28;;;;;;;;;;;;;;;27.46;28.77;101045.56;5076970;28;885;-43
2022/05/13 06:52:53;;;;;;;;;;;;;;;27.55;28.92;101049.88;5077735;28;834;-44
2022/05/13 06:55:19;;;;;;;;;;;;;;;27.57;29.03;101045.16;5076892;28;859;-46
2022/05/13 06:57:44;;;;;;;;;;;;;;;27.62;28.85;101044.59;5076759;28;1885;-46
2022/05/13 07:00:10;;;;;;;;;;;;;;;27.60;29.04;101041.22;5076684;28;883;-44
2022/05/13 07:02:35;;;;;;;;;;;;;;;27.68;28.84;101045.72;5076978;28;793;-42
2022/05/13 07:05:00;;;;;;;;;;;;;;;27.65;29.17;101040.69;5076440;28;874;-43
2022/05/13 07:07:28;;;;;;;;;;;;;;;27.77;29.15;101041.16;5076995;28;766;-44
2022/05/13 07:09:53;;;;;;;;;;;;;;;27.69;28.99;101033.94;5076789;28;857;-45
2022/05/13 07:12:18;;;;;;;;;;;;;;;27.67;29.30;101036.81;5076472;28;905;-44
2022/05/13 07:14:44;;;;;;;;;;;;;;;27.78;29.41;101037.44;5077126;28;792;-45
2022/05/13 07:17:09;;;;;;;;;;;;;;;27.79;29.59;101039.09;5076118;28;994;-34
2022/05/13 07:19:34;;;;;;;;;;;;;;;27.83;29.17;101032.31;5058394;28;1973;-44
2022/05/13 07:22:00;;;;;;;;;;;;;;;27.80;29.63;101029.97;5077204;28;786;-43
2022/05/13 07:24:26;;;;;;;;;;;;;;;27.83;29.80;101026.91;5076078;28;842;-43
2022/05/13 07:26:51;;;;;;;;;;;;;;;27.72;29.73;101022.78;5075527;28;1090;-44
2022/05/13 07:29:17;;;;;;;;;;;;;;;27.75;29.38;101031.38;5076498;28;913;-43
2022/05/13 07:31:42;;;;;;;;;;;;;;;27.81;29.45;101026.25;5076192;28;1006;-44
2022/05/13 07:34:07;;;;;;;;;;;;;;;27.80;29.39;101038.06;5076662;28;821;-44
2022/05/13 07:36:33;;;;;;;;;;;;;;;27.89;29.50;101031.59;5076576;28;833;-43
2022/05/13 07:41:42;;;;;;;;;;;;;;;27.93;29.56;101023.94;5076466;28;579;-44
2022/05/13 07:44:08;;;;;;;;;;;;;;;27.97;29.18;101031.53;5076647;28;714;-44
2022/05/13 07:46:33;;;;;;;;;;;;;;;28.03;29.13;101029.94;5075609;28;1041;-43
2022/05/13 07:48:58;;;;;;;;;;;;;;;28.04;29.19;101023.53;5076565;28;851;-43
2022/05/13 07:51:26;;;;;;;;;;;;;;;28.03;29.20;101024.53;5058057;28;955;-43
2022/05/13 07:53:51;;;;;;;;;;;;;;;28.06;29.41;101021.47;5076097;28;929;-43
2022/05/13 07:56:16;;;;;;;;;;;;;;;28.06;29.23;101018.75;5076308;28;986;-43
2022/05/13 07:58:42;;;;;;;;;;;;;;;28.08;29.55;101013.16;5076246;28;1957;-43
2022/05/13 08:01:07;;;;;;;;;;;;;;;27.99;29.81;101010.53;5075756;28;1006;-43
2022/05/13 08:03:32;;;;;;;;;;;;;;;28.03;29.66;101005.59;5076079;28;845;-44
2022/05/13 08:06:02;;;;;;;;;;;;;;;28.06;29.56;101010.66;5076234;28;813;-44
2022/05/13 08:08:30;;;;;;;;;;;;;;;28.07;29.37;101008.78;5075940;28;845;-43
2022/05/13 08:10:57;;;;;;;;;;;;;;;28.10;29.48;101009.28;5076212;28;838;-44
2022/05/13 08:13:22;;;;;;;;;;;;;;;28.09;29.37;101009.47;5076513;28;777;-44
2022/05/13 08:15:47;;;;;;;;;;;;;;;28.14;29.26;101001.63;5075421;28;1088;-44
2022/05/13 08:18:13;;;;;;;;;;;;;;;28.18;29.50;101005.63;5076141;28;1951;-44
2022/05/13 08:20:40;;;;;;;;;;;;;;;28.21;29.50;101007.16;5075859;28;1052;-44
2022/05/13 08:23:05;;;;;;;;;;;;;;;28.20;29.56;100998.19;5075989;28;828;-44
2022/05/13 08:25:31;;;;;;;;;;;;;;;28.23;29.89;101000.53;5076021;28;1549;-44
2022/05/13 08:27:56;;;;;;;;;;;;;;;28.24;29.73;101002.19;5076006;28;758;-45
2022/05/13 08:30:22;;;;;;;;;;;;;;;28.28;29.52;100999.16;5074846;28;873;-43
2022/05/13 08:32:47;;;;;;;;;;;;;;;28.32;29.70;101005.84;5057785;28;905;-44
2022/05/13 08:35:12;;;;;;;;;;;;;;;28.31;29.93;100999.59;5076372;28;766;-44
2022/05/13 08:37:48;;;;;;;;;;;;;;;28.30;30.05;100999.78;5077052;28;1902;-44
2022/05/13 08:40:20;;;;;;;;;;;;;;;28.35;30.15;100989.28;5079926;28;849;-45
2022/05/13 08:42:45;;;;;;;;;;;;;;;28.39;29.67;100993.31;5061842;28;842;-44
2022/05/13 08:45:11;;;;;;;;;;;;;;;28.42;29.75;100998.34;5078889;28;1034;-44
2022/05/13 08:47:42;;;;;;;;;;;;;;;28.41;29.89;100988.53;5079629;28;900;-44
2022/05/13 08:50:08;;;;;;;;;;;;;;;28.43;29.72;100993.75;5079521;28;820;-44
2022/05/13 08:55:29;;;;;;;;;;;;;;;28.18;29.90;100992.13;5063793;28;833;-44
2022/05/13 08:57:54;;;;;;;;;;;;;;;28.25;29.08;100992.22;5079215;28;1882;-44
2022/05/13 09:00:30;;;;;;;;;;;;;;;28.30;29.04;100983.53;5078749;28;1041;-45
2022/05/13 09:02:58;;;;;;;;;;;;;;;28.39;28.90;100982.47;5079719;28;769;-43
2022/05/13 09:05:27;;;;;;;;;;;;;;;28.33;29.34;100975.09;5060498;28;1096;-43
2022/05/13 09:07:53;;;;;;;;;;;;;;;28.54;28.96;100979.78;5078433;28;884;-43
2022/05/13 09:10:18;;;;;;;;;;;;;;;28.81;27.75;100971.97;5079124;28;889;-43
2022/05/13 09:12:53;;;;;;;;;;;;;;;28.82;27.52;100983.66;5079238;28;758;-43
2022/05/13 09:15:20;;;;;;;;;;;;;;;28.74;28.24;100981.91;5078709;28;990;-43
2022/05/13 09:18:01;;;;;;;;;;;;;;;28.65;28.25;100973.03;5060081;28;1890;-44
2022/05/13 09:20:26;;;;;;;;;;;;;;;28.63;28.44;100968.84;5078719;28;900;-43
2022/05/13 09:22:58;;;;;;;;;;;;;;;28.58;28.56;100972.94;5079007;28;782;-43
2022/05/13 09:25:42;;;;;;;;;;;;;;;28.57;28.35;100970.44;5078813;28;1241;-44
2022/05/13 09:28:11;;;;;;;;;;;;;;;28.52;28.47;100965.59;5078994;28;853;-43
2022/05/13 09:30:41;;;;;;;;;;;;;;;28.62;28.59;100956.31;5078824;28;1006;-44
2022/05/13 09:33:19;;;;;;;;;;;;;;;28.50;28.76;100967.63;5078775;28;845;-43
2022/05/13 09:35:44;;;;;;;;;;;;;;;28.41;29.02;100960.66;5078717;28;789;-44
2022/05/13 09:38:13;;;;;;;;;;;;;;;28.34;29.01;100960.56;5078220;28;2371;-44
2022/05/13 09:40:38;;;;;;;;;;;;;;;28.40;29.08;100953.53;5078806;28;839;-43
2022/05/13 09:43:04;;;;;;;;;;;;;;;28.50;28.74;100954.09;5061266;28;824;-43
2022/05/13 09:45:33;;;;;;;;;;;;;;;28.49;29.02;100949.72;5077918;28;983;-43
2022/05/13 09:47:58;;;;;;;;;;;;;;;28.51;28.72;100954.94;5078052;28;810;-43
2022/05/13 09:50:25;;;;;;;;;;;;;;;28.44;28.94;100936.75;5077877;28;877;-44
2022/05/13 09:52:52;;;;;;;;;;;;;;;28.40;29.02;100940.00;5078591;28;837;-44
2022/05/13 09:55:33;;;;;;;;;;;;;;;28.41;28.92;100937.13;5060639;28;849;-43
2022/05/13 09:58:00;;;;;;;;;;;;;;;28.43;28.77;100934.22;5077920;28;1886;-44
2022/05/13 10:00:30;;;;;;;;;;;;;;;28.41;29.18;100934.41;5060117;28;991;-43
2022/05/13 10:03:17;;;;;;;;;;;;;;;28.47;29.12;100930.13;5078296;28;821;-45
2022/05/13 10:05:43;;;;;;;;;;;;;;;28.53;29.32;100933.97;5078232;28;734;-44
2022/05/13 10:08:08;;;;;;;;;;;;;;;28.63;28.91;100931.78;5059721;28;894;-45
2022/05/13 10:16:16;;;;;;;;;;;;;;;28.61;29.15;100931.16;5077597;28;959;-44
2022/05/13 10:19:02;;;;;;;;;;;;;;;28.65;28.96;100915.34;5059785;28;1953;-45
2022/05/13 10:21:35;;;;;;;;;;;;;;;28.70;29.20;100916.47;5059925;28;1553;-44
2022/05/13 10:24:06;;;;;;;;;;;;;;;28.78;29.00;100907.38;5077711;28;943;-44
2022/05/13 10:26:34;;;;;;;;;;;;;;;28.56;28.85;100911.94;5077744;28;1039;-37
2022/05/13 10:29:15;;;;;;;;;;;;;;;28.78;29.14;100911.97;5059571;28;865;-43
2022/05/13 10:31:41;;;;;;;;;;;;;;;28.92;28.62;100899.41;5077453;28;1045;-43
2022/05/13 10:34:16;;;;;;;;;;;;;;;28.95;28.60;100905.28;5060007;28;854;-41
2022/05/13 10:36:50;;;;;;;;;;;;;;;29.00;28.38;100898.47;5076659;28;860;-41
2022/05/13 10:39:22;;;;;;;;;;;;;;;29.09;28.72;100900.03;5077084;28;1973;-42
2022/05/13 10:41:52;;;;;;;;;;;;;;;29.27;27.87;100898.75;5059680;28;904;-42
2022/05/13 10:44:17;;;;;;;;;;;;;;;29.09;28.24;100897.34;5077309;28;738;-41
2022/05/13 10:46:46;;;;;;;;;;;;;;;29.06;28.36;100895.84;5076908;28;994;-42
2022/05/13 10:49:12;;;;;;;;;;;;;;;29.16;28.20;100886.56;5059146;28;834;-42
2022/05/13 10:51:46;;;;;;;;;;;;;;;29.15;28.47;100887.59;5077121;28;902;-40
2022/05/13 10:54:18;;;;;;;;;;;;;;;29.19;28.04;100880.75;5077261;28;810;-42
2022/05/13 10:56:46;;;;;;;;;;;;;;;29.18;28.03;100876.34;5076897;28;810;-42
2022/05/13 10:59:11;;;;;;;;;;;;;;;29.28;28.16;100881.47;5076311;28;1897;-42
2022/05/13 11:01:54;;;;;;;;;;;;;;;29.30;28.01;100876.69;5076473;28;999;-42
2022/05/13 11:04:37;;;;;;;;;;;;;;;29.36;27.85;100870.50;5059043;28;750;-41
2022/05/13 11:07:06;;;;;;;;;;;;;;;29.39;27.92;100878.25;5076814;28;984;-42
2022/05/13 11:09:52;;;;;;;;;;;;;;;29.42;27.87;100874.28;5076530;28;837;-42
2022/05/13 11:12:36;;;;;;;;;;;;;;;29.40;27.98;100868.22;5058470;28;894;-42
2022/05/13 11:15:20;;;;;;;;;;;;;;;29.39;28.05;100864.69;5076396;28;849;-42
2022/05/13 11:17:55;;;;;;;;;;;;;;;29.43;27.95;100855.13;5076881;28;1894;-41
2022/05/13 11:20:23;;;;;;;;;;;;;;;29.43;27.88;100856.97;5076665;28;805;-42
2022/05/13 11:22:48;;;;;;;;;;;;;;;29.46;27.96;100852.00;5059198;28;838;-42
2022/05/13 11:28:14;;;;;;;;;;;;;;;29.21;28.12;100852.44;5060807;28;869;-43
2022/05/13 11:30:56;;;;;;;;;;;;;;;29.20;28.47;100848.06;5059293;28;1007;-42
2022/05/13 11:33:28;;;;;;;;;;;;;;;29.22;28.48;100845.16;5076141;28;786;-43
2022/05/13 11:36:09;;;;;;;;;;;;;;;29.23;28.31;100841.41;5076758;28;774;-42
2022/05/13 11:38:46;;;;;;;;;;;;;;;29.20;28.14;100839.94;5076743;28;1989;-43
2022/05/13 11:41:15;;;;;;;;;;;;;;;29.20;28.22;100830.97;5075749;28;1024;-43
2022/05/13 11:44:01;;;;;;;;;;;;;;;29.21;27.95;100825.34;5076105;28;833;-43
2022/05/13 11:46:45;;;;;;;;;;;;;;;29.11;28.21;100833.00;5075368;28;1865;-42
2022/05/13 11:49:13;;;;;;;;;;;;;;;29.14;28.33;100823.63;5076496;28;787;-43
2022/05/13 11:51:38;;;;;;;;;;;;;;;29.07;28.49;100823.56;5058057;28;1421;-43
2022/05/13 11:54:03;;;;;;;;;;;;;;;29.13;28.32;100827.38;5076099;28;833;-42
2022/05/13 11:56:33;;;;;;;;;;;;;;;29.13;28.51;100820.06;5076160;28;823;-42
2022/05/13 11:59:16;;;;;;;;;;;;;;;29.19;28.39;100811.19;5076123;28;1966;-43
2022/05/13 12:01:45;;;;;;;;;;;;;;;29.20;28.16;100812.00;5076054;28;991;-43
2022/05/13 12:04:13;;;;;;;;;;;;;;;29.14;28.15;100802.81;5075895;28;851;-43
2022/05/13 12:06:48;;;;;;;;;;;;;;;29.15;28.03;100800.91;5075665;28;895;-43
2022/05/13 12:09:13;;;;;;;;;;;;;;;29.13;28.47;100808.41;5076622;28;977;-44
2022/05/13 12:11:45;;;;;;;;;;;;;;;29.19;28.46;100803.06;5058028;28;846;-43
2022/05/13 12:14:17;;;;;;;;;;;;;;;29.21;28.04;100795.53;5061744;28;869;-44
2022/05/13 12:16:43;;;;;;;;;;;;;;;29.24;28.08;100794.34;5061439;28;1026;-43
2022/05/13 12:19:17;;;;;;;;;;;;;;;29.17;28.11;100788.00;5079586;28;1905;-43
2022/05/13 12:22:03;;;;;;;;;;;;;;;29.08;28.02;100792.72;5080179;28;860;-43
2022/05/13 12:24:28;;;;;;;;;;;;;;;29.07;27.99;100786.50;5062318;28;795;-43
2022/05/13 12:27:03;;;;;;;;;;;;;;;29.06;27.91;100790.22;5079295;28;1460;-42
2022/05/13 12:29:32;;;;;;;;;;;;;;;29.10;28.16;100787.97;5080309;28;845;-43
2022/05/13 12:31:57;;;;;;;;;;;;;;;29.09;27.81;100787.09;5079341;28;1018;-42
2022/05/13 12:39:51;;;;;;;;;;;;;;;29.14;27.95;100774.88;5079612;28;687;-43
2022/05/13 12:42:16;;;;;;;;;;;;;;;29.11;27.79;100776.09;5079048;28;758;-43
2022/05/13 12:44:49;;;;;;;;;;;;;;;29.09;27.66;100776.28;5061521;28;853;-42
2022/05/13 12:47:15;;;;;;;;;;;;;;;29.10;27.77;100769.00;5061252;28;1224;-42
2022/05/13 12:49:54;;;;;;;;;;;;;;;29.07;27.71;100774.81;5079345;28;849;-43
2022/05/13 12:52:38;;;;;;;;;;;;;;;29.07;27.82;100772.94;5079481;28;862;-43
2022/05/13 12:55:04;;;;;;;;;;;;;;;29.08;27.61;100769.19;5079270;28;723;-42
2022/05/13 12:57:31;;;;;;;;;;;;;;;29.15;27.05;100773.81;5078590;28;1901;-43
2022/05/13 12:59:56;;;;;;;;;;;;;;;29.17;27.30;100761.78;5079322;28;1094;-43
2022/05/13 13:02:22;;;;;;;;;;;;;;;29.16;27.12;100768.22;5060953;28;853;-42
2022/05/13 13:04:54;;;;;;;;;;;;;;;29.17;26.87;100753.66;5057047;28;1208;-43
2022/05/13 13:07:21;;;;;;;;;;;;;;;29.20;26.93;100757.81;5041399;28;749;-43
2022/05/13 13:09:48;;;;;;;;;;;;;;;29.18;26.65;100749.03;5070021;28;841;-43
2022/05/13 13:12:32;;;;;;;;;;;;;;;29.21;26.66;100751.38;5078781;28;1499;-42
2022/05/13 13:15:15;;;;;;;;;;;;;;;29.19;26.45;100732.63;5078853;28;986;-43
2022/05/13 13:17:49;;;;;;;;;;;;;;;29.20;26.60;100737.00;5078690;28;1952;-43
2022/05/13 13:20:17;;;;;;;;;;;;;;;29.17;26.39;100728.41;5079185;28;797;-43
2022/05/13 13:22:43;;;;;;;;;;;;;;;29.16;26.21;100735.69;5078027;28;904;-43
2022/05/13 13:25:12;;;;;;;;;;;;;;;29.16;26.54;100718.63;5077418;28;834;-43